Time;durP1;ratioP1;P1;durP2;ratioP2;P2;SDS_P1;SDS_P2;PMS_P1;PMS_P2;Temp;Humidity;BMP_temperature;BMP_pressure;BME280_temperature;BME280_humidity;BME280_pressure;Samples;Min_cycle;Max_cycle;Signal;HPM_P1;HPM_P2
2023/05/02 00:05:10;;;;;;;53.80;27.42;;;;;;;-144.73;100.00;54280.44;5061935;28;20108;-71
2023/05/02 00:07:35;;;;;;;55.67;30.08;;;;;;;-144.73;100.00;54290.72;5068314;28;20111;-71
2023/05/02 00:10:01;;;;;;;56.85;29.75;;;;;;;-144.73;100.00;54288.66;5068266;28;20097;-71
2023/05/02 00:12:27;;;;;;;53.20;28.98;;;;;;;-144.73;100.00;54329.72;5081152;28;20028;-71
2023/05/02 00:14:52;;;;;;;53.47;29.13;;;;;;;-144.73;100.00;54296.88;5080263;28;20028;-72
2023/05/02 00:17:19;;;;;;;58.22;32.17;;;;;;;-144.73;100.00;54284.56;5052193;28;20029;-71
2023/05/02 00:19:45;;;;;;;51.15;29.27;;;;;;;-144.73;100.00;54309.19;5068770;28;20073;-71
2023/05/02 00:22:10;;;;;;;55.05;29.83;;;;;;;-144.73;100.00;54300.97;5069456;28;20052;-72
2023/05/02 00:24:36;;;;;;;62.38;33.38;;;;;;;-144.73;100.00;54309.19;5069105;28;20055;-71
2023/05/02 00:27:01;;;;;;;53.95;33.95;;;;;;;-144.73;100.00;54259.91;5052067;28;20052;-72
2023/05/02 00:29:26;;;;;;;62.67;34.10;;;;;;;-144.73;100.00;54276.34;5069406;28;20035;-71
2023/05/02 00:31:52;;;;;;;53.80;31.80;;;;;;;-144.73;100.00;54317.38;5069195;28;20043;-71
2023/05/02 00:34:17;;;;;;;61.15;33.33;;;;;;;-144.73;100.00;54300.97;5051902;28;20087;-71
2023/05/02 00:36:42;;;;;;;59.95;31.30;;;;;;;-144.73;100.00;54294.81;5051460;28;20542;-72
2023/05/02 00:39:08;;;;;;;57.95;33.05;;;;;;;-144.73;100.00;54309.19;5051694;28;20372;-71
2023/05/02 00:41:34;;;;;;;69.05;35.38;;;;;;;-144.73;100.00;54288.66;5064534;28;20364;-70
2023/05/02 00:43:59;;;;;;;66.07;35.90;;;;;;;-144.73;100.00;54276.34;5069800;28;20494;-70
2023/05/02 00:46:25;;;;;;;77.47;35.67;;;;;;;-144.73;100.00;54284.56;5079219;28;20036;-70
2023/05/02 00:48:50;;;;;;;56.63;33.35;;;;;;;-144.73;100.00;54247.59;5051314;28;20467;-70
2023/05/02 00:51:17;;;;;;;71.07;35.88;;;;;;;-144.73;100.00;54317.38;5068405;28;20036;-71
2023/05/02 00:53:42;;;;;;;70.25;37.72;;;;;;;-144.73;100.00;54327.66;5069390;28;20060;-70
2023/05/02 00:56:08;;;;;;;66.63;37.45;;;;;;;-144.73;100.00;54268.13;5069498;28;20391;-70
2023/05/02 00:58:35;;;;;;;77.50;37.70;;;;;;;-144.73;100.00;54266.06;5048065;28;20028;-71
2023/05/02 01:01:15;;;;;;;69.50;38.22;;;;;;;-144.73;100.00;54305.06;5068703;28;20034;-71
2023/05/02 01:04:09;;;;;;;68.20;37.15;;;;;;;-144.73;100.00;54268.13;5068938;28;20043;-71
2023/05/02 01:06:40;;;;;;;72.60;36.80;;;;;;;-144.73;100.00;54335.88;5047284;28;20044;-70
2023/05/02 01:09:16;;;;;;;63.63;35.13;;;;;;;-144.73;100.00;54325.59;5068746;28;20027;-70
2023/05/02 01:11:59;;;;;;;68.40;35.58;;;;;;;-144.73;100.00;54292.75;5047529;28;20169;-71
2023/05/02 01:14:29;;;;;;;73.38;38.63;;;;;;;-144.73;100.00;54264.03;5068533;28;20059;-71
2023/05/02 01:16:57;;;;;;;60.75;35.58;;;;;;;-144.73;100.00;54294.81;5049603;28;20033;-71
2023/05/02 01:19:31;;;;;;;67.25;36.72;;;;;;;-144.73;100.00;54276.34;5066570;28;20030;-70
2023/05/02 01:21:59;;;;;;;67.72;36.13;;;;;;;-144.73;100.00;54354.34;5067646;28;20060;-70
2023/05/02 01:24:29;;;;;;;60.28;34.90;;;;;;;-144.73;100.00;54313.28;5050997;28;20050;-70
2023/05/02 01:27:06;;;;;;;59.97;32.33;;;;;;;-144.73;100.00;54276.34;5068390;28;20040;-71
2023/05/02 01:29:32;;;;;;;63.72;32.47;;;;;;;-144.73;100.00;54319.44;5050674;28;20035;-71
2023/05/02 01:32:01;;;;;;;56.30;29.98;;;;;;;-144.73;100.00;54313.28;5067713;28;20036;-72
2023/05/02 01:34:29;;;;;;;59.97;31.38;;;;;;;-144.73;100.00;54259.91;5067289;28;20020;-71
2023/05/02 01:36:58;;;;;;;56.30;31.13;;;;;;;-144.73;100.00;54284.56;5049771;28;20189;-70
2023/05/02 01:39:25;;;;;;;55.42;30.23;;;;;;;-144.73;100.00;54335.88;5068971;28;20036;-70
2023/05/02 01:41:53;;;;;;;59.67;34.05;;;;;;;-144.73;100.00;54268.13;5049911;28;20056;-71
2023/05/02 01:44:20;;;;;;;58.75;29.92;;;;;;;-144.73;100.00;54333.81;5050443;28;20393;-71
2023/05/02 01:46:48;;;;;;;56.80;29.23;;;;;;;-144.73;100.00;54276.34;5067915;28;20036;-71
2023/05/02 01:49:14;;;;;;;58.95;28.55;;;;;;;-144.73;100.00;54268.13;5068348;28;20166;-71
2023/05/02 01:51:44;;;;;;;53.03;25.77;;;;;;;-144.73;100.00;54296.88;5067786;28;20044;-71
2023/05/02 01:54:12;;;;;;;55.10;25.83;;;;;;;-144.73;100.00;54292.75;5074812;28;20059;-71
2023/05/02 01:56:38;;;;;;;54.83;24.10;;;;;;;-144.73;100.00;54309.19;5050453;28;20035;-71
2023/05/02 01:59:07;;;;;;;53.85;26.52;;;;;;;-144.73;100.00;54280.44;5049659;28;20020;-71
2023/05/02 02:01:35;;;;;;;59.38;25.33;;;;;;;-144.73;100.00;54321.50;5049983;28;20120;-71
2023/05/02 02:04:01;;;;;;;55.53;24.55;;;;;;;-144.73;100.00;54317.38;5049814;28;20029;-71
2023/05/02 02:06:26;;;;;;;63.22;27.85;;;;;;;-144.73;100.00;54309.19;5050362;28;20032;-71
2023/05/02 02:08:53;;;;;;;70.80;26.92;;;;;;;-144.73;100.00;54296.88;5049723;28;20055;-70
2023/05/02 02:11:25;;;;;;;57.67;23.73;;;;;;;-144.73;100.00;54342.03;5067535;28;20059;-70
2023/05/02 02:13:59;;;;;;;50.33;23.08;;;;;;;-144.73;100.00;54292.75;5068466;28;20056;-70
2023/05/02 02:16:29;;;;;;;45.95;20.75;;;;;;;-144.73;100.00;54296.88;5068102;28;20036;-70
2023/05/02 02:18:57;;;;;;;49.00;21.35;;;;;;;-144.73;100.00;54288.66;5049874;28;20043;-70
2023/05/02 02:21:26;;;;;;;47.80;22.40;;;;;;;-144.73;100.00;54292.75;5067646;28;20380;-70
2023/05/02 02:23:54;;;;;;;46.33;20.17;;;;;;;-144.73;100.00;54313.28;5046985;28;20025;-71
2023/05/02 02:26:21;;;;;;;43.80;18.13;;;;;;;-144.73;100.00;54300.97;5049516;28;20040;-70
2023/05/02 02:28:47;;;;;;;40.60;18.65;;;;;;;-144.73;100.00;54303.03;5082983;28;20035;-70
2023/05/02 02:31:12;;;;;;;38.60;17.00;;;;;;;-144.73;100.00;54339.97;5067457;28;20029;-71
2023/05/02 02:33:37;;;;;;;41.85;17.13;;;;;;;-144.73;100.00;54346.13;5054949;28;20028;-71
2023/05/02 02:36:11;;;;;;;31.92;15.52;;;;;;;-144.73;100.00;54276.34;5050190;28;20078;-71
2023/05/02 02:39:03;;;;;;;30.00;13.07;;;;;;;-144.73;100.00;54288.66;5064566;28;20029;-71
2023/05/02 02:41:38;;;;;;;19.52;11.57;;;;;;;-144.73;100.00;54321.50;5049626;28;20071;-71
2023/05/02 02:44:26;;;;;;;19.10;11.18;;;;;;;-144.73;100.00;54305.06;5048001;28;20088;-71
2023/05/02 02:47:16;;;;;;;19.88;9.90;;;;;;;-144.73;100.00;54292.75;5050547;28;20075;-71
2023/05/02 02:49:48;;;;;;;19.85;9.52;;;;;;;-144.73;100.00;54300.97;5050159;28;20028;-71
2023/05/02 02:52:49;;;;;;;18.13;8.48;;;;;;;-144.73;100.00;54309.19;5053391;28;20078;-71
2023/05/02 02:55:37;;;;;;;25.88;9.45;;;;;;;-144.73;100.00;54337.91;5050285;28;20024;-71
2023/05/02 02:58:11;;;;;;;16.95;9.90;;;;;;;-144.73;100.00;54333.81;5053559;28;20067;-71
2023/05/02 03:00:38;;;;;;;28.50;10.38;;;;;;;-144.73;100.00;54333.81;5066693;28;20575;-71
2023/05/02 03:03:05;;;;;;;26.73;8.85;;;;;;;-144.73;100.00;54321.50;5052626;28;20040;-71
2023/05/02 03:05:32;;;;;;;23.17;6.57;;;;;;;-144.73;100.00;54305.06;5053585;28;20085;-71
2023/05/02 03:07:59;;;;;;;26.77;6.72;;;;;;;-144.73;100.00;54290.72;5071012;28;20029;-71
2023/05/02 03:10:24;;;;;;;17.33;5.70;;;;;;;-144.73;100.00;54305.06;5070879;28;20036;-71
2023/05/02 03:12:54;;;;;;;30.25;6.35;;;;;;;-144.73;100.00;54303.03;5053319;28;20403;-71
2023/05/02 03:15:47;;;;;;;26.08;5.75;;;;;;;-144.73;100.00;54255.81;5053373;28;20033;-71
2023/05/02 03:18:12;;;;;;;34.90;8.05;;;;;;;-144.73;100.00;54331.75;5053298;28;20082;-71
2023/05/02 03:20:38;;;;;;;30.27;6.72;;;;;;;-144.73;100.00;54319.44;5052973;28;20028;-71
2023/05/02 03:23:04;;;;;;;28.25;6.35;;;;;;;-144.73;100.00;54307.13;5052911;28;20044;-71
2023/05/02 03:25:29;;;;;;;54.58;9.57;;;;;;;-144.73;100.00;54337.91;5052875;28;20047;-71
2023/05/02 03:27:56;;;;;;;36.53;7.28;;;;;;;-144.73;100.00;54296.88;5070887;28;20032;-71
2023/05/02 03:30:21;;;;;;;54.03;9.05;;;;;;;-144.73;100.00;54296.88;5070396;28;20036;-71
2023/05/02 03:32:47;;;;;;;41.65;7.93;;;;;;;-144.73;100.00;54288.66;5070655;28;20048;-71
2023/05/02 03:35:12;;;;;;;61.15;10.00;;;;;;;-144.73;100.00;54313.28;5052960;28;20137;-71
2023/05/02 03:37:37;;;;;;;34.53;7.18;;;;;;;-144.73;100.00;54292.75;5052973;28;20032;-71
2023/05/02 03:40:03;;;;;;;35.08;6.95;;;;;;;-144.73;100.00;54342.03;5069443;28;20067;-71
2023/05/02 03:42:29;;;;;;;40.85;7.50;;;;;;;-144.73;100.00;54296.88;5070257;28;20182;-71
2023/05/02 03:44:54;;;;;;;43.30;7.47;;;;;;;-144.73;100.00;54288.66;5052297;28;20033;-71
2023/05/02 03:47:20;;;;;;;35.80;6.78;;;;;;;-144.73;100.00;54298.91;5082612;28;20041;-71
2023/05/02 03:49:45;;;;;;;40.55;6.60;;;;;;;-144.73;100.00;54300.97;5070660;28;20116;-71
2023/05/02 03:52:11;;;;;;;34.38;7.13;;;;;;;-144.73;100.00;54284.56;5052344;28;20087;-71
2023/05/02 03:54:36;;;;;;;40.25;7.82;;;;;;;-144.73;100.00;54288.66;5052897;28;20489;-71
2023/05/02 03:57:03;;;;;;;34.50;6.90;;;;;;;-144.73;100.00;54325.59;5069970;28;20086;-71
2023/05/02 03:59:31;;;;;;;46.95;7.43;;;;;;;-144.73;100.00;54255.81;5070563;28;20093;-71
2023/05/02 04:01:57;;;;;;;49.25;7.88;;;;;;;-144.73;100.00;54268.13;5069618;28;20036;-71
2023/05/02 04:04:22;;;;;;;53.90;8.68;;;;;;;-144.73;100.00;54243.50;5070638;28;20039;-70
2023/05/02 04:06:47;;;;;;;42.67;7.32;;;;;;;-144.73;100.00;54300.97;5052187;28;20041;-70
2023/05/02 04:09:13;;;;;;;41.10;7.35;;;;;;;-144.73;100.00;54251.72;5070206;28;20036;-71
2023/05/02 04:11:38;;;;;;;30.20;7.07;;;;;;;-144.73;100.00;54296.88;5051912;28;20044;-70
2023/05/02 04:14:03;;;;;;;30.35;6.93;;;;;;;-144.73;100.00;54251.72;5069747;28;20102;-70
2023/05/02 04:16:28;;;;;;;42.45;8.20;;;;;;;-144.73;100.00;54290.72;5051875;28;20456;-70
2023/05/02 04:18:54;;;;;;;53.05;8.57;;;;;;;-144.73;100.00;54278.41;5052190;28;20039;-70
2023/05/02 04:21:20;;;;;;;40.25;7.63;;;;;;;-144.73;100.00;54266.06;5069769;28;20049;-70
2023/05/02 04:23:45;;;;;;;39.97;7.63;;;;;;;-144.73;100.00;54235.28;5069768;28;20044;-71
2023/05/02 04:26:10;;;;;;;35.10;6.57;;;;;;;-144.73;100.00;54317.38;5069950;28;20041;-71
2023/05/02 04:28:36;;;;;;;46.78;7.10;;;;;;;-144.73;100.00;54278.41;5052256;28;20474;-71
2023/05/02 04:31:02;;;;;;;37.50;5.88;;;;;;;-144.73;100.00;54251.72;5050671;28;20045;-70
2023/05/02 04:33:28;;;;;;;35.45;6.95;;;;;;;-144.73;100.00;54278.41;5051884;28;20032;-71
2023/05/02 04:35:53;;;;;;;47.95;7.57;;;;;;;-144.73;100.00;54292.75;5069658;28;20028;-73
2023/05/02 04:38:18;;;;;;;31.83;6.00;;;;;;;-144.73;100.00;54305.06;5052061;28;20032;-72
2023/05/02 04:40:44;;;;;;;31.90;6.63;;;;;;;-144.73;100.00;54288.66;5069238;28;20040;-72
2023/05/02 04:43:10;;;;;;;32.22;5.90;;;;;;;-144.73;100.00;54296.88;5051959;28;20161;-72
2023/05/02 04:45:35;;;;;;;28.40;5.97;;;;;;;-144.73;100.00;54276.34;5051719;28;20055;-72
2023/05/02 04:48:01;;;;;;;34.88;5.45;;;;;;;-144.73;100.00;54276.34;5051173;28;20130;-70
2023/05/02 04:50:28;;;;;;;34.22;5.60;;;;;;;-144.73;100.00;54305.06;5069007;28;20485;-70
2023/05/02 04:52:53;;;;;;;33.17;6.20;;;;;;;-144.73;100.00;54300.97;5050439;28;20048;-71
2023/05/02 04:55:19;;;;;;;31.20;5.53;;;;;;;-144.73;100.00;54276.34;5069726;28;20020;-71
2023/05/02 04:57:44;;;;;;;36.33;6.85;;;;;;;-144.73;100.00;54237.34;5051466;28;20029;-71
2023/05/02 05:00:10;;;;;;;33.47;5.05;;;;;;;-144.73;100.00;54259.91;5050957;28;20032;-71
2023/05/02 05:02:37;;;;;;;40.75;5.60;;;;;;;-144.73;100.00;54325.59;5046988;28;20035;-71
2023/05/02 05:05:03;;;;;;;29.42;6.45;;;;;;;-144.73;100.00;54292.75;5051059;28;20028;-71
2023/05/02 05:07:28;;;;;;;33.80;5.75;;;;;;;-144.73;100.00;54251.72;5084302;28;20090;-71
2023/05/02 05:09:53;;;;;;;25.58;5.60;;;;;;;-144.73;100.00;54276.34;5068476;28;20036;-71
2023/05/02 05:12:19;;;;;;;41.45;6.22;;;;;;;-144.73;100.00;54296.88;5068593;28;20036;-71
2023/05/02 05:14:44;;;;;;;36.95;6.07;;;;;;;-144.73;100.00;54243.50;5051209;28;20036;-71
2023/05/02 05:17:09;;;;;;;38.58;6.35;;;;;;;-144.73;100.00;54325.59;5049851;28;20048;-71
2023/05/02 05:19:35;;;;;;;32.17;6.10;;;;;;;-144.73;100.00;54280.44;5068735;28;20056;-72
2023/05/02 05:22:00;;;;;;;37.95;6.88;;;;;;;-144.73;100.00;54292.75;5049231;28;20107;-71
2023/05/02 05:24:25;;;;;;;33.47;5.65;;;;;;;-144.73;100.00;54317.38;5048584;28;20024;-71
2023/05/02 05:26:51;;;;;;;41.08;7.97;;;;;;;-144.73;100.00;54317.38;5050014;28;20039;-71
2023/05/02 05:29:17;;;;;;;38.25;5.63;;;;;;;-144.73;100.00;54255.81;5048477;28;20035;-71
2023/05/02 05:31:43;;;;;;;42.90;6.68;;;;;;;-144.73;100.00;54294.81;5075648;28;20029;-71
2023/05/02 05:34:08;;;;;;;34.30;6.20;;;;;;;-144.73;100.00;54309.19;5067516;28;20063;-71
2023/05/02 05:36:34;;;;;;;32.75;5.45;;;;;;;-144.73;100.00;54259.91;5068135;28;20036;-72
2023/05/02 05:39:00;;;;;;;31.85;6.13;;;;;;;-144.73;100.00;54255.81;5068275;28;20031;-72
2023/05/02 05:41:25;;;;;;;27.60;6.97;;;;;;;-144.73;100.00;54288.66;5050514;28;20033;-71
2023/05/02 05:43:50;;;;;;;31.00;5.78;;;;;;;-144.73;99.80;54227.09;5050157;28;20035;-71
2023/05/02 05:46:16;;;;;;;41.05;5.25;;;;;;;-144.73;98.82;54325.59;5050013;28;20029;-71
2023/05/02 05:48:41;;;;;;;25.38;5.05;;;;;;;-144.73;97.95;54255.81;5051046;28;20036;-72
2023/05/02 05:51:06;;;;;;;34.13;5.43;;;;;;;-144.73;99.00;54305.06;5076468;28;20036;-72
2023/05/02 05:53:32;;;;;;;36.20;5.45;;;;;;;-144.73;98.91;54311.22;5044135;28;20028;-71
2023/05/02 05:55:58;;;;;;;32.75;5.30;;;;;;;-144.73;98.20;54309.19;5047460;28;20033;-72
2023/05/02 05:58:23;;;;;;;28.30;5.50;;;;;;;-144.73;97.55;54276.34;5065977;28;20383;-72
2023/05/02 06:00:49;;;;;;;33.30;5.68;;;;;;;-144.73;97.42;54255.81;5067315;28;20107;-72
2023/05/02 06:03:15;;;;;;;32.72;5.60;;;;;;;-144.73;97.12;54284.56;5068136;28;20012;-72
2023/05/02 06:05:41;;;;;;;37.45;5.05;;;;;;;-144.73;96.41;54280.44;5049691;28;20024;-72
2023/05/02 06:08:06;;;;;;;43.10;5.03;;;;;;;-144.73;95.57;54261.97;5050117;28;20032;-71
2023/05/02 06:10:32;;;;;;;23.08;5.13;;;;;;;-144.73;95.22;54251.72;5067575;28;20066;-72
2023/05/02 06:12:57;;;;;;;25.05;4.28;;;;;;;-144.73;95.03;54311.22;5049851;28;20055;-71
2023/05/02 06:15:22;;;;;;;23.00;4.80;;;;;;;-144.73;95.37;54264.03;5051011;28;20058;-71
2023/05/02 06:17:50;;;;;;;27.98;5.10;;;;;;;-144.73;95.58;54251.72;5050161;28;20032;-71
2023/05/02 06:20:16;;;;;;;24.77;4.88;;;;;;;-144.73;95.09;54243.50;5066288;28;20466;-72
2023/05/02 06:22:41;;;;;;;38.03;5.05;;;;;;;-144.73;94.40;54288.66;5067490;28;20040;-71
2023/05/02 06:25:07;;;;;;;25.10;4.85;;;;;;;-144.73;93.19;54276.34;5081705;28;20054;-71
2023/05/02 06:27:33;;;;;;;29.88;4.75;;;;;;;-144.73;92.59;54280.44;5049962;28;20039;-71
2023/05/02 06:29:58;;;;;;;23.55;4.78;;;;;;;-144.73;91.45;54264.03;5062710;28;20017;-70
2023/05/02 06:32:25;;;;;;;27.95;4.75;;;;;;;-144.73;91.18;54264.03;5048208;28;20037;-71
2023/05/02 06:34:50;;;;;;;20.13;3.97;;;;;;;-144.73;89.69;54276.34;5050332;28;20024;-72
2023/05/02 06:37:16;;;;;;;31.52;5.18;;;;;;;-144.73;89.40;54284.56;5065024;28;20032;-72
2023/05/02 06:39:41;;;;;;;17.70;4.25;;;;;;;-144.73;89.99;54259.91;5066839;28;20044;-72
2023/05/02 06:42:06;;;;;;;20.70;4.10;;;;;;;-144.73;89.33;54247.59;5049685;28;20154;-72
2023/05/02 06:44:32;;;;;;;25.45;4.80;;;;;;;-144.73;89.95;54235.28;5068187;28;20119;-71
2023/05/02 06:46:57;;;;;;;24.92;4.78;;;;;;;-144.73;91.19;54276.34;5050024;28;20047;-72
2023/05/02 06:49:22;;;;;;;35.35;5.30;;;;;;;-144.73;90.57;54292.75;5067975;28;20028;-72
2023/05/02 06:51:48;;;;;;;23.85;4.55;;;;;;;-144.73;90.92;54276.34;5049590;28;20040;-72
2023/05/02 06:54:14;;;;;;;23.77;4.30;;;;;;;-144.73;89.21;54276.34;5049440;28;20028;-71
2023/05/02 06:56:40;;;;;;;21.83;4.80;;;;;;;-144.73;88.64;54235.28;5067940;28;20028;-72
2023/05/02 06:59:06;;;;;;;17.23;3.28;;;;;;;-144.73;88.90;54317.38;5069842;28;20042;-72
2023/05/02 07:01:31;;;;;;;13.32;3.78;;;;;;;-144.73;88.37;54264.03;5069427;28;20119;-71
2023/05/02 07:03:56;;;;;;;25.13;4.10;;;;;;;-144.73;86.98;54284.56;5063625;28;20486;-72
2023/05/02 07:06:23;;;;;;;25.27;4.57;;;;;;;-144.73;86.13;54280.44;5045676;28;20058;-71
2023/05/02 07:08:48;;;;;;;24.40;3.63;;;;;;;-144.73;86.31;54245.56;5071595;28;20087;-72
2023/05/02 07:11:13;;;;;;;19.38;3.63;;;;;;;-144.73;85.61;54284.56;5049830;28;20029;-71
2023/05/02 07:13:39;;;;;;;19.83;3.58;;;;;;;-144.73;85.27;54253.75;5050117;28;20527;-71
2023/05/02 07:16:05;;;;;;;20.25;3.92;;;;;;;-144.73;84.11;54288.66;5059545;28;20052;-71
2023/05/02 07:18:30;;;;;;;15.88;3.88;;;;;;;-144.73;84.99;54251.72;5033802;28;20521;-72
2023/05/02 07:20:55;;;;;;;27.00;5.10;;;;;;;-144.73;84.08;54264.03;5046883;28;20060;-71
2023/05/02 07:23:21;;;;;;;19.73;3.80;;;;;;;-144.73;82.79;54276.34;5039728;28;20109;-71
2023/05/02 07:25:47;;;;;;;13.30;3.75;;;;;;;-144.73;82.19;54255.81;5064354;28;20120;-73
2023/05/02 07:28:12;;;;;;;20.15;3.67;;;;;;;-144.73;81.17;54292.75;5076478;28;20115;-70
2023/05/02 07:30:38;;;;;;;15.15;3.13;;;;;;;-144.73;81.38;54268.13;5050681;28;20107;-71
2023/05/02 07:33:03;;;;;;;15.95;3.45;;;;;;;-144.73;79.30;54214.78;5052053;28;20052;-71
2023/05/02 07:35:28;;;;;;;11.35;2.55;;;;;;;-144.73;79.16;54313.28;5049111;28;20372;-70
2023/05/02 07:37:54;;;;;;;13.75;3.50;;;;;;;-144.73;78.33;54288.66;5049562;28;20039;-71
2023/05/02 07:40:19;;;;;;;10.02;2.97;;;;;;;-144.73;75.63;54284.56;5065586;28;20033;-72
2023/05/02 07:42:45;;;;;;;14.23;2.22;;;;;;;-144.73;74.27;54235.28;5047225;28;20047;-71
2023/05/02 07:45:11;;;;;;;9.60;2.35;;;;;;;-144.73;74.79;54259.91;5048265;28;20487;-71
2023/05/02 07:47:36;;;;;;;13.32;3.00;;;;;;;-144.73;74.32;54255.81;5045155;28;20025;-71
2023/05/02 07:50:05;;;;;;;13.20;2.55;;;;;;;-144.73;73.96;54298.91;5063300;28;20029;-71
2023/05/02 07:52:31;;;;;;;12.68;3.33;;;;;;;-144.73;74.84;54284.56;5047143;28;20036;-71
2023/05/02 07:54:56;;;;;;;13.55;3.33;;;;;;;-144.73;74.07;54235.28;5049351;28;20023;-71
2023/05/02 07:57:22;;;;;;;15.05;2.72;;;;;;;-144.73;74.47;54280.44;5046815;28;20020;-71
2023/05/02 07:59:48;;;;;;;9.25;2.53;;;;;;;-144.73;73.39;54231.19;5065907;28;20024;-70
2023/05/02 08:02:13;;;;;;;19.65;2.95;;;;;;;-144.73;71.67;54247.59;5064522;28;20029;-71
2023/05/02 08:04:39;;;;;;;16.92;3.10;;;;;;;-144.73;70.49;54300.97;5066815;28;20017;-71
2023/05/02 08:07:05;;;;;;;15.48;3.92;;;;;;;-144.73;71.84;54218.88;5065394;28;20033;-71
2023/05/02 08:09:30;;;;;;;17.15;2.95;;;;;;;-144.73;72.54;54225.03;5046479;28;20040;-71
2023/05/02 08:11:56;;;;;;;17.80;3.30;;;;;;;-144.73;72.20;54227.09;5062207;28;20036;-71
2023/05/02 08:14:21;;;;;;;12.00;2.67;;;;;;;-144.73;72.18;54268.13;5065012;28;20036;-70
2023/05/02 08:16:47;;;;;;;19.30;3.60;;;;;;;-144.73;73.38;54259.91;5064270;28;20552;-71
2023/05/02 08:19:12;;;;;;;21.73;3.47;;;;;;;-144.73;72.87;54286.59;5046316;28;20039;-71
2023/05/02 08:21:38;;;;;;;17.48;3.40;;;;;;;-144.73;71.64;54243.50;5046746;28;20032;-71
2023/05/02 08:24:03;;;;;;;14.02;3.03;;;;;;;-144.73;71.28;54259.91;5046589;28;20021;-71
2023/05/02 08:26:28;;;;;;;18.50;2.90;;;;;;;-144.73;71.04;54210.66;5063655;28;20105;-71
2023/05/02 08:28:54;;;;;;;15.50;3.10;;;;;;;-144.73;71.72;54259.91;5051640;28;20047;-71
2023/05/02 08:31:20;;;;;;;16.60;2.80;;;;;;;-144.73;71.88;54218.88;5043852;28;20049;-72
2023/05/02 08:33:46;;;;;;;19.15;2.67;;;;;;;-144.73;71.75;54276.34;5079403;28;20074;-72
2023/05/02 08:36:13;;;;;;;20.23;3.03;;;;;;;-144.73;70.91;54290.72;5054012;28;20086;-71
2023/05/02 08:38:39;;;;;;;20.52;2.92;;;;;;;-144.73;69.82;54251.72;5043425;28;20024;-71
2023/05/02 08:41:16;;;;;;;16.92;3.17;;;;;;;-144.73;67.71;54264.03;5046887;28;20049;-71
2023/05/02 08:43:42;;;;;;;22.85;3.42;;;;;;;-144.73;66.76;54280.44;5084047;28;20078;-71
2023/05/02 08:46:09;;;;;;;16.55;2.95;;;;;;;-144.73;65.09;54231.19;5043922;28;20044;-71
2023/05/02 08:48:36;;;;;;;15.77;3.05;;;;;;;-144.73;65.98;54255.81;5047670;28;20507;-71
2023/05/02 08:51:03;;;;;;;18.77;2.95;;;;;;;-144.73;65.81;54278.41;5067255;28;20515;-71
2023/05/02 08:53:34;;;;;;;19.45;3.30;;;;;;;-144.73;68.57;54227.09;5057622;28;20020;-73
2023/05/02 08:56:00;;;;;;;16.60;2.72;;;;;;;-144.73;66.85;54247.59;5057224;28;20124;-71
2023/05/02 08:58:25;;;;;;;16.83;2.78;;;;;;;-144.73;66.39;54214.78;5061863;28;20898;-72
2023/05/02 09:00:52;;;;;;;12.10;3.03;;;;;;;-144.73;67.39;54255.81;5046055;28;20063;-72
2023/05/02 09:03:27;;;;;;;26.85;3.45;;;;;;;-144.73;66.13;54288.66;5045351;28;20054;-72
2023/05/02 09:06:02;;;;;;;12.63;3.15;;;;;;;-144.73;67.02;54243.50;5044321;28;20021;-72
2023/05/02 09:08:27;;;;;;;15.80;2.63;;;;;;;-144.73;65.06;54251.72;5047121;28;20028;-72
2023/05/02 09:10:52;;;;;;;15.95;2.88;;;;;;;-144.73;64.82;54266.06;5042389;28;20037;-72
2023/05/02 09:13:29;;;;;;;18.52;4.22;;;;;;;-144.73;64.03;54294.81;5074705;28;20013;-71
2023/05/02 09:16:06;;;;;;;27.45;3.78;;;;;;;-144.73;66.53;54243.50;5058546;28;20112;-73
2023/05/02 09:18:34;;;;;;;17.42;2.70;;;;;;;-144.73;66.64;54286.59;5043719;28;20069;-71
2023/05/02 09:21:05;;;;;;;16.77;2.60;;;;;;;-144.73;67.47;54235.28;5046142;28;20092;-71
2023/05/02 09:23:42;;;;;;;15.00;2.83;;;;;;;-144.73;65.82;54218.88;5066259;28;20024;-72
2023/05/02 09:26:18;;;;;;;19.92;2.83;;;;;;;-144.73;66.39;54292.75;5074839;28;20527;-72
2023/05/02 09:28:49;;;;;;;14.38;2.95;;;;;;;-144.73;65.34;54218.88;5065223;28;20048;-72
2023/05/02 09:31:16;;;;;;;8.07;2.78;;;;;;;-144.73;63.76;54210.66;5061831;28;20056;-73
2023/05/02 09:33:42;;;;;;;22.50;3.65;;;;;;;-144.73;61.29;54231.19;5039376;28;20032;-73
2023/05/02 09:36:13;;;;;;;13.23;3.13;;;;;;;-144.73;59.90;54222.97;5061702;28;20044;-71
2023/05/02 09:38:40;;;;;;;9.43;2.63;;;;;;;-144.73;60.27;54243.50;5040918;28;20035;-71
2023/05/02 09:41:05;;;;;;;11.90;2.58;;;;;;;-144.73;58.30;54296.88;5045805;28;20486;-73
2023/05/02 09:43:31;;;;;;;7.60;2.03;;;;;;;-144.73;58.95;54247.59;5042345;28;20042;-72
2023/05/02 09:45:57;;;;;;;13.70;2.40;;;;;;;-144.73;58.85;54218.88;5048581;28;20036;-73
2023/05/02 09:48:22;;;;;;;10.25;2.83;;;;;;;-144.73;59.01;54227.09;5044003;28;20040;-73
2023/05/02 09:50:47;;;;;;;12.55;2.78;;;;;;;-144.73;60.08;54255.81;5061468;28;20025;-72
2023/05/02 09:53:13;;;;;;;8.20;2.28;;;;;;;-144.73;60.06;54255.81;5046360;28;20049;-72
2023/05/02 09:55:38;;;;;;;8.02;2.58;;;;;;;-144.73;59.62;54239.41;5064402;28;20036;-73
2023/05/02 09:58:04;;;;;;;11.68;2.05;;;;;;;-144.73;60.35;54264.03;5040505;28;20053;-72
2023/05/02 10:00:39;;;;;;;9.80;2.00;;;;;;;-144.73;60.33;54268.13;5038230;28;20071;-72
2023/05/02 10:03:07;;;;;;;10.15;2.28;;;;;;;-144.73;61.08;54255.81;5044861;28;20059;-72
2023/05/02 10:05:35;;;;;;;11.60;2.10;;;;;;;-144.73;62.46;54259.91;5057834;28;20039;-72
2023/05/02 10:08:03;;;;;;;12.02;2.55;;;;;;;-144.73;62.47;54255.81;5074834;28;20025;-73
2023/05/02 10:10:32;;;;;;;14.90;2.33;;;;;;;-144.73;61.57;54237.34;5043006;28;20027;-72
2023/05/02 10:12:58;;;;;;;16.35;2.42;;;;;;;-144.73;62.79;54251.72;5034797;28;20037;-72
2023/05/02 10:15:27;;;;;;;5.47;2.22;;;;;;;-144.73;62.13;54268.13;5060191;28;20056;-72
2023/05/02 10:17:56;;;;;;;13.65;2.50;;;;;;;-144.73;62.97;54282.50;5057906;28;20104;-71
2023/05/02 10:20:28;;;;;;;18.58;3.33;;;;;;;-144.73;64.43;54251.72;5037493;28;20028;-71
2023/05/02 10:22:55;;;;;;;13.85;3.17;;;;;;;-144.73;65.92;54268.13;5040030;28;20028;-71
2023/05/02 10:25:20;;;;;;;9.27;2.92;;;;;;;-144.73;67.66;54288.66;5037566;28;20043;-71
2023/05/02 10:27:47;;;;;;;12.55;3.08;;;;;;;-144.73;68.09;54239.41;5043683;28;20468;-71
2023/05/02 10:30:13;;;;;;;9.70;2.58;;;;;;;-144.73;69.68;54255.81;5057889;28;20479;-72
2023/05/02 10:32:39;;;;;;;12.00;3.15;;;;;;;-144.73;70.75;54290.72;5039654;28;20040;-72
2023/05/02 10:35:06;;;;;;;11.43;2.65;;;;;;;-144.73;73.26;54233.25;5039874;28;20021;-72
2023/05/02 10:37:33;;;;;;;9.70;2.47;;;;;;;-144.73;72.85;54292.75;5041606;28;20032;-73
2023/05/02 10:39:59;;;;;;;10.23;3.10;;;;;;;-144.73;70.92;54235.28;5044867;28;20031;-72
2023/05/02 10:42:26;;;;;;;16.05;2.83;;;;;;;-144.73;66.71;54255.81;5037826;28;20033;-72
2023/05/02 10:44:51;;;;;;;15.80;3.20;;;;;;;-144.73;62.27;54235.28;5039034;28;20094;-72
2023/05/02 10:47:25;;;;;;;13.30;2.90;;;;;;;-144.73;61.22;54247.59;5038971;28;20028;-73
2023/05/02 10:49:53;;;;;;;6.00;2.10;;;;;;;-144.73;60.78;54235.28;5041085;28;20035;-73
2023/05/02 10:52:29;;;;;;;8.43;2.22;;;;;;;-144.73;60.02;54255.81;5050841;28;20042;-72
2023/05/02 10:55:18;;;;;;;22.42;3.03;;;;;;;-144.73;58.80;54218.88;5065186;28;20440;-72
2023/05/02 10:58:06;;;;;;;12.65;2.58;;;;;;;-144.73;59.59;54264.03;5039619;28;20033;-73
2023/05/02 11:00:33;;;;;;;9.55;2.28;;;;;;;-144.73;58.96;54251.72;5035579;28;20033;-72
2023/05/02 11:02:59;;;;;;;10.43;2.50;;;;;;;-144.73;57.36;54255.81;5041152;28;20036;-72
2023/05/02 11:05:25;;;;;;;8.13;2.70;;;;;;;-144.73;60.87;54296.88;5040610;28;20025;-72
2023/05/02 11:08:26;;;;;;;7.47;1.60;;;;;;;-144.73;61.18;54268.13;5075434;28;20051;-72
2023/05/02 11:10:51;;;;;;;10.18;2.35;;;;;;;-144.73;62.63;54284.56;5003548;28;20034;-71